sensor_id;sensor_type;location;lat;lon;timestamp;temperature;humidity
25214;DHT22;13160;51.834;4.706;2023-03-02T00:00:06;1.40;99.90
25214;DHT22;13160;51.834;4.706;2023-03-02T00:02:44;1.40;99.90
25214;DHT22;13160;51.834;4.706;2023-03-02T00:05:12;1.40;99.90
25214;DHT22;13160;51.834;4.706;2023-03-02T00:07:44;1.40;99.90
25214;DHT22;13160;51.834;4.706;2023-03-02T00:10:13;1.40;99.90
25214;DHT22;13160;51.834;4.706;2023-03-02T00:12:41;1.40;99.90
25214;DHT22;13160;51.834;4.706;2023-03-02T00:15:10;1.30;99.90
25214;DHT22;13160;51.834;4.706;2023-03-02T00:17:38;1.30;99.90
25214;DHT22;13160;51.834;4.706;2023-03-02T00:20:09;1.30;99.90
25214;DHT22;13160;51.834;4.706;2023-03-02T00:22:39;1.30;99.90
25214;DHT22;13160;51.834;4.706;2023-03-02T00:25:10;1.30;99.90
25214;DHT22;13160;51.834;4.706;2023-03-02T00:27:40;1.30;99.90
25214;DHT22;13160;51.834;4.706;2023-03-02T00:30:10;1.30;99.90
25214;DHT22;13160;51.834;4.706;2023-03-02T00:32:39;1.30;99.90
25214;DHT22;13160;51.834;4.706;2023-03-02T00:35:08;1.30;99.90
25214;DHT22;13160;51.834;4.706;2023-03-02T00:37:37;1.30;99.90
25214;DHT22;13160;51.834;4.706;2023-03-02T00:40:07;1.30;99.90
25214;DHT22;13160;51.834;4.706;2023-03-02T00:42:38;1.20;99.90
25214;DHT22;13160;51.834;4.706;2023-03-02T00:45:07;1.20;99.90
25214;DHT22;13160;51.834;4.706;2023-03-02T00:47:36;1.20;99.90
25214;DHT22;13160;51.834;4.706;2023-03-02T00:50:08;1.20;99.90
25214;DHT22;13160;51.834;4.706;2023-03-02T00:52:37;1.20;99.90
25214;DHT22;13160;51.834;4.706;2023-03-02T00:55:06;1.20;99.90
25214;DHT22;13160;51.834;4.706;2023-03-02T00:57:36;1.20;99.90
25214;DHT22;13160;51.834;4.706;2023-03-02T01:00:05;1.20;99.90
25214;DHT22;13160;51.834;4.706;2023-03-02T01:02:34;1.10;99.90
25214;DHT22;13160;51.834;4.706;2023-03-02T01:05:05;1.10;99.90
25214;DHT22;13160;51.834;4.706;2023-03-02T01:07:33;1.10;99.90
25214;DHT22;13160;51.834;4.706;2023-03-02T01:10:02;1.20;99.90
25214;DHT22;13160;51.834;4.706;2023-03-02T01:12:33;1.10;99.90
25214;DHT22;13160;51.834;4.706;2023-03-02T01:15:04;1.10;99.90
25214;DHT22;13160;51.834;4.706;2023-03-02T01:17:33;1.10;99.90
25214;DHT22;13160;51.834;4.706;2023-03-02T01:20:03;1.10;99.90
25214;DHT22;13160;51.834;4.706;2023-03-02T01:22:34;1.10;99.90
25214;DHT22;13160;51.834;4.706;2023-03-02T01:25:06;1.10;99.90
25214;DHT22;13160;51.834;4.706;2023-03-02T01:27:34;1.10;99.90
25214;DHT22;13160;51.834;4.706;2023-03-02T01:30:06;1.00;99.90
25214;DHT22;13160;51.834;4.706;2023-03-02T01:32:36;1.00;99.90
25214;DHT22;13160;51.834;4.706;2023-03-02T01:35:05;1.00;99.90
25214;DHT22;13160;51.834;4.706;2023-03-02T01:37:33;1.00;99.90
25214;DHT22;13160;51.834;4.706;2023-03-02T01:40:02;1.00;99.90
25214;DHT22;13160;51.834;4.706;2023-03-02T01:42:37;1.00;99.90
25214;DHT22;13160;51.834;4.706;2023-03-02T01:48:22;1.00;99.90
25214;DHT22;13160;51.834;4.706;2023-03-02T01:50:54;0.90;99.90
25214;DHT22;13160;51.834;4.706;2023-03-02T01:53:25;0.90;99.90
25214;DHT22;13160;51.834;4.706;2023-03-02T01:55:58;0.90;99.90
25214;DHT22;13160;51.834;4.706;2023-03-02T01:58:27;0.90;99.90
25214;DHT22;13160;51.834;4.706;2023-03-02T02:01:01;0.90;99.90
25214;DHT22;13160;51.834;4.706;2023-03-02T02:03:30;0.90;99.90
25214;DHT22;13160;51.834;4.706;2023-03-02T02:06:05;0.90;99.90
25214;DHT22;13160;51.834;4.706;2023-03-02T02:08:38;0.90;99.90
25214;DHT22;13160;51.834;4.706;2023-03-02T02:11:06;0.90;99.90
25214;DHT22;13160;51.834;4.706;2023-03-02T02:13:34;0.80;99.90
25214;DHT22;13160;51.834;4.706;2023-03-02T02:16:05;0.80;99.90
25214;DHT22;13160;51.834;4.706;2023-03-02T02:18:36;0.80;99.90
25214;DHT22;13160;51.834;4.706;2023-03-02T02:21:06;0.80;99.90
25214;DHT22;13160;51.834;4.706;2023-03-02T02:23:39;0.80;99.90
25214;DHT22;13160;51.834;4.706;2023-03-02T02:26:19;0.80;99.90
25214;DHT22;13160;51.834;4.706;2023-03-02T02:28:55;0.80;99.90
25214;DHT22;13160;51.834;4.706;2023-03-02T02:31:32;0.80;99.90
25214;DHT22;13160;51.834;4.706;2023-03-02T02:34:08;0.80;99.90
25214;DHT22;13160;51.834;4.706;2023-03-02T02:36:42;0.80;99.90
25214;DHT22;13160;51.834;4.706;2023-03-02T02:39:16;0.80;99.90
25214;DHT22;13160;51.834;4.706;2023-03-02T02:41:53;0.80;99.90
25214;DHT22;13160;51.834;4.706;2023-03-02T02:44:22;0.80;99.90
25214;DHT22;13160;51.834;4.706;2023-03-02T02:46:51;0.80;99.90
25214;DHT22;13160;51.834;4.706;2023-03-02T02:49:28;0.80;99.90
25214;DHT22;13160;51.834;4.706;2023-03-02T02:51:58;0.80;99.90
25214;DHT22;13160;51.834;4.706;2023-03-02T02:54:28;0.80;99.90
25214;DHT22;13160;51.834;4.706;2023-03-02T02:56:59;0.80;99.90
25214;DHT22;13160;51.834;4.706;2023-03-02T02:59:31;0.80;99.90
25214;DHT22;13160;51.834;4.706;2023-03-02T03:02:01;0.80;99.90
25214;DHT22;13160;51.834;4.706;2023-03-02T03:04:31;0.80;99.90
25214;DHT22;13160;51.834;4.706;2023-03-02T03:07:02;0.80;99.90
25214;DHT22;13160;51.834;4.706;2023-03-02T03:09:32;0.80;99.90
25214;DHT22;13160;51.834;4.706;2023-03-02T03:12:07;0.80;99.90
25214;DHT22;13160;51.834;4.706;2023-03-02T03:14:40;0.80;99.90
25214;DHT22;13160;51.834;4.706;2023-03-02T03:17:08;0.80;99.90
25214;DHT22;13160;51.834;4.706;2023-03-02T03:19:41;0.80;99.90
25214;DHT22;13160;51.834;4.706;2023-03-02T03:22:12;0.80;99.90
25214;DHT22;13160;51.834;4.706;2023-03-02T03:24:43;0.90;99.90
25214;DHT22;13160;51.834;4.706;2023-03-02T03:27:14;0.90;99.90
25214;DHT22;13160;51.834;4.706;2023-03-02T03:29:46;0.90;99.90
25214;DHT22;13160;51.834;4.706;2023-03-02T03:32:17;0.90;99.90
25214;DHT22;13160;51.834;4.706;2023-03-02T03:34:46;0.90;99.90
25214;DHT22;13160;51.834;4.706;2023-03-02T03:37:16;0.90;99.90
25214;DHT22;13160;51.834;4.706;2023-03-02T03:39:46;0.80;99.90
25214;DHT22;13160;51.834;4.706;2023-03-02T03:42:16;0.90;99.90
25214;DHT22;13160;51.834;4.706;2023-03-02T03:44:44;0.90;99.90
25214;DHT22;13160;51.834;4.706;2023-03-02T03:47:13;0.80;99.90
25214;DHT22;13160;51.834;4.706;2023-03-02T03:49:41;0.80;99.90
25214;DHT22;13160;51.834;4.706;2023-03-02T03:52:09;0.80;99.90
25214;DHT22;13160;51.834;4.706;2023-03-02T03:54:37;0.90;99.90
25214;DHT22;13160;51.834;4.706;2023-03-02T03:57:06;0.90;99.90
25214;DHT22;13160;51.834;4.706;2023-03-02T03:59:37;0.90;99.90
25214;DHT22;13160;51.834;4.706;2023-03-02T04:02:06;0.90;99.90
25214;DHT22;13160;51.834;4.706;2023-03-02T04:04:34;0.90;99.90
25214;DHT22;13160;51.834;4.706;2023-03-02T04:07:02;0.80;99.90
25214;DHT22;13160;51.834;4.706;2023-03-02T04:09:33;0.80;99.90
25214;DHT22;13160;51.834;4.706;2023-03-02T04:12:06;0.90;99.90
25214;DHT22;13160;51.834;4.706;2023-03-02T04:14:37;0.90;99.90
25214;DHT22;13160;51.834;4.706;2023-03-02T04:17:05;0.90;99.90
25214;DHT22;13160;51.834;4.706;2023-03-02T04:19:33;0.90;99.90
25214;DHT22;13160;51.834;4.706;2023-03-02T04:22:06;0.90;99.90
25214;DHT22;13160;51.834;4.706;2023-03-02T04:24:34;0.90;99.90
25214;DHT22;13160;51.834;4.706;2023-03-02T04:27:02;0.90;99.90
25214;DHT22;13160;51.834;4.706;2023-03-02T04:29:31;0.90;99.90
25214;DHT22;13160;51.834;4.706;2023-03-02T04:32:01;0.90;99.90
25214;DHT22;13160;51.834;4.706;2023-03-02T04:34:29;0.90;99.90
25214;DHT22;13160;51.834;4.706;2023-03-02T04:36:57;0.90;99.90
25214;DHT22;13160;51.834;4.706;2023-03-02T04:39:26;0.90;99.90
25214;DHT22;13160;51.834;4.706;2023-03-02T04:41:55;0.90;99.90
25214;DHT22;13160;51.834;4.706;2023-03-02T04:44:23;0.90;99.90
25214;DHT22;13160;51.834;4.706;2023-03-02T04:46:51;0.90;99.90
25214;DHT22;13160;51.834;4.706;2023-03-02T04:49:21;0.90;99.90
25214;DHT22;13160;51.834;4.706;2023-03-02T04:51:49;0.80;99.90
25214;DHT22;13160;51.834;4.706;2023-03-02T04:54:20;0.90;99.90
25214;DHT22;13160;51.834;4.706;2023-03-02T04:56:50;0.80;99.90
25214;DHT22;13160;51.834;4.706;2023-03-02T04:59:24;0.90;99.90
25214;DHT22;13160;51.834;4.706;2023-03-02T05:01:55;0.90;99.90
25214;DHT22;13160;51.834;4.706;2023-03-02T05:04:26;0.90;99.90
25214;DHT22;13160;51.834;4.706;2023-03-02T05:06:55;0.90;99.90
25214;DHT22;13160;51.834;4.706;2023-03-02T05:09:24;0.90;99.90
25214;DHT22;13160;51.834;4.706;2023-03-02T05:11:58;0.80;99.90
25214;DHT22;13160;51.834;4.706;2023-03-02T05:14:28;0.80;99.90
25214;DHT22;13160;51.834;4.706;2023-03-02T05:16:56;0.80;99.90
25214;DHT22;13160;51.834;4.706;2023-03-02T05:19:26;0.80;99.90
25214;DHT22;13160;51.834;4.706;2023-03-02T05:21:55;0.80;99.90
25214;DHT22;13160;51.834;4.706;2023-03-02T05:24:23;0.80;99.90
25214;DHT22;13160;51.834;4.706;2023-03-02T05:26:51;0.80;99.90
25214;DHT22;13160;51.834;4.706;2023-03-02T05:29:20;0.80;99.90
25214;DHT22;13160;51.834;4.706;2023-03-02T05:31:48;0.80;99.90
25214;DHT22;13160;51.834;4.706;2023-03-02T05:34:17;0.80;99.90
25214;DHT22;13160;51.834;4.706;2023-03-02T05:36:47;0.70;99.90
25214;DHT22;13160;51.834;4.706;2023-03-02T05:39:18;0.80;99.90
25214;DHT22;13160;51.834;4.706;2023-03-02T05:41:46;0.80;99.90
25214;DHT22;13160;51.834;4.706;2023-03-02T05:44:14;0.80;99.90
25214;DHT22;13160;51.834;4.706;2023-03-02T05:46:43;0.70;99.90
25214;DHT22;13160;51.834;4.706;2023-03-02T05:49:11;0.80;99.90
25214;DHT22;13160;51.834;4.706;2023-03-02T05:51:39;0.70;99.90
25214;DHT22;13160;51.834;4.706;2023-03-02T05:54:09;0.70;99.90
25214;DHT22;13160;51.834;4.706;2023-03-02T05:56:37;0.70;99.90
25214;DHT22;13160;51.834;4.706;2023-03-02T05:59:06;0.70;99.90
25214;DHT22;13160;51.834;4.706;2023-03-02T06:01:34;0.70;99.90
25214;DHT22;13160;51.834;4.706;2023-03-02T06:04:03;0.70;99.90
25214;DHT22;13160;51.834;4.706;2023-03-02T06:06:31;0.70;99.90
25214;DHT22;13160;51.834;4.706;2023-03-02T06:09:00;0.70;99.90
25214;DHT22;13160;51.834;4.706;2023-03-02T06:11:29;0.70;99.90
25214;DHT22;13160;51.834;4.706;2023-03-02T06:13:58;0.70;99.90
25214;DHT22;13160;51.834;4.706;2023-03-02T06:16:26;0.60;99.90
25214;DHT22;13160;51.834;4.706;2023-03-02T06:18:54;0.60;99.90
25214;DHT22;13160;51.834;4.706;2023-03-02T06:21:22;0.60;99.90
25214;DHT22;13160;51.834;4.706;2023-03-02T06:23:50;0.60;99.90
25214;DHT22;13160;51.834;4.706;2023-03-02T06:26:19;0.70;99.90
25214;DHT22;13160;51.834;4.706;2023-03-02T06:28:48;0.60;99.90
25214;DHT22;13160;51.834;4.706;2023-03-02T06:31:19;0.60;99.90
25214;DHT22;13160;51.834;4.706;2023-03-02T06:33:48;0.60;99.90
25214;DHT22;13160;51.834;4.706;2023-03-02T06:36:16;0.60;99.90
25214;DHT22;13160;51.834;4.706;2023-03-02T06:38:45;0.60;99.90
25214;DHT22;13160;51.834;4.706;2023-03-02T06:41:13;0.60;99.90
25214;DHT22;13160;51.834;4.706;2023-03-02T06:43:44;0.60;99.90
25214;DHT22;13160;51.834;4.706;2023-03-02T06:46:14;0.60;99.90
25214;DHT22;13160;51.834;4.706;2023-03-02T06:48:42;0.50;99.90
25214;DHT22;13160;51.834;4.706;2023-03-02T06:51:11;0.50;99.90
25214;DHT22;13160;51.834;4.706;2023-03-02T06:53:39;0.50;99.90
25214;DHT22;13160;51.834;4.706;2023-03-02T06:56:07;0.50;99.90
25214;DHT22;13160;51.834;4.706;2023-03-02T06:58:36;0.50;99.90
25214;DHT22;13160;51.834;4.706;2023-03-02T07:01:05;0.60;99.90
25214;DHT22;13160;51.834;4.706;2023-03-02T07:03:36;0.60;99.90
25214;DHT22;13160;51.834;4.706;2023-03-02T07:06:05;0.60;99.90
25214;DHT22;13160;51.834;4.706;2023-03-02T07:08:33;0.60;99.90
25214;DHT22;13160;51.834;4.706;2023-03-02T07:11:04;0.60;99.90
25214;DHT22;13160;51.834;4.706;2023-03-02T07:13:33;0.60;99.90
25214;DHT22;13160;51.834;4.706;2023-03-02T07:16:07;0.60;99.90
25214;DHT22;13160;51.834;4.706;2023-03-02T07:18:38;0.60;99.90
25214;DHT22;13160;51.834;4.706;2023-03-02T07:21:07;0.60;99.90
25214;DHT22;13160;51.834;4.706;2023-03-02T07:23:35;0.70;99.90
25214;DHT22;13160;51.834;4.706;2023-03-02T07:26:04;0.70;99.90
25214;DHT22;13160;51.834;4.706;2023-03-02T07:28:35;0.70;99.90
25214;DHT22;13160;51.834;4.706;2023-03-02T07:31:06;0.80;99.90
25214;DHT22;13160;51.834;4.706;2023-03-02T07:33:35;0.80;99.90
25214;DHT22;13160;51.834;4.706;2023-03-02T07:36:06;0.80;99.90
25214;DHT22;13160;51.834;4.706;2023-03-02T07:38:35;0.80;99.90
25214;DHT22;13160;51.834;4.706;2023-03-02T07:41:07;1.00;99.90
25214;DHT22;13160;51.834;4.706;2023-03-02T07:43:37;0.90;99.90
25214;DHT22;13160;51.834;4.706;2023-03-02T07:46:05;0.90;99.90
25214;DHT22;13160;51.834;4.706;2023-03-02T07:48:34;1.00;99.90
25214;DHT22;13160;51.834;4.706;2023-03-02T07:51:04;1.00;99.90
25214;DHT22;13160;51.834;4.706;2023-03-02T07:53:34;1.00;99.90
25214;DHT22;13160;51.834;4.706;2023-03-02T07:56:05;1.00;99.90
25214;DHT22;13160;51.834;4.706;2023-03-02T07:58:35;1.10;99.90
25214;DHT22;13160;51.834;4.706;2023-03-02T08:01:05;1.10;99.90
25214;DHT22;13160;51.834;4.706;2023-03-02T08:03:34;1.20;99.90
25214;DHT22;13160;51.834;4.706;2023-03-02T08:06:06;1.20;99.90
25214;DHT22;13160;51.834;4.706;2023-03-02T08:08:36;1.30;99.90
25214;DHT22;13160;51.834;4.706;2023-03-02T08:11:06;1.30;99.90
25214;DHT22;13160;51.834;4.706;2023-03-02T08:13:35;1.40;99.90
25214;DHT22;13160;51.834;4.706;2023-03-02T08:16:05;1.40;99.90
25214;DHT22;13160;51.834;4.706;2023-03-02T08:18:35;1.40;99.90
25214;DHT22;13160;51.834;4.706;2023-03-02T08:21:07;1.50;99.90
25214;DHT22;13160;51.834;4.706;2023-03-02T08:23:38;1.50;99.90
25214;DHT22;13160;51.834;4.706;2023-03-02T08:26:06;1.60;99.90
25214;DHT22;13160;51.834;4.706;2023-03-02T08:28:39;1.70;99.90
25214;DHT22;13160;51.834;4.706;2023-03-02T08:31:08;1.70;99.90
25214;DHT22;13160;51.834;4.706;2023-03-02T08:33:37;1.80;99.90
25214;DHT22;13160;51.834;4.706;2023-03-02T08:36:10;1.80;99.90
25214;DHT22;13160;51.834;4.706;2023-03-02T08:38:40;1.90;99.90
25214;DHT22;13160;51.834;4.706;2023-03-02T08:41:11;2.00;99.90
25214;DHT22;13160;51.834;4.706;2023-03-02T08:43:40;2.00;99.90
25214;DHT22;13160;51.834;4.706;2023-03-02T08:46:11;2.10;99.90
25214;DHT22;13160;51.834;4.706;2023-03-02T08:48:44;2.10;99.90
25214;DHT22;13160;51.834;4.706;2023-03-02T08:51:15;2.20;99.90
25214;DHT22;13160;51.834;4.706;2023-03-02T08:53:46;2.30;99.90
25214;DHT22;13160;51.834;4.706;2023-03-02T08:56:17;2.30;99.90
25214;DHT22;13160;51.834;4.706;2023-03-02T08:58:47;2.40;99.90
25214;DHT22;13160;51.834;4.706;2023-03-02T09:01:18;2.50;99.90
25214;DHT22;13160;51.834;4.706;2023-03-02T09:03:48;2.50;99.90
25214;DHT22;13160;51.834;4.706;2023-03-02T09:06:18;2.50;99.90
25214;DHT22;13160;51.834;4.706;2023-03-02T09:08:48;2.70;99.90
25214;DHT22;13160;51.834;4.706;2023-03-02T09:11:17;2.70;99.90
25214;DHT22;13160;51.834;4.706;2023-03-02T09:13:45;2.80;99.90
25214;DHT22;13160;51.834;4.706;2023-03-02T09:16:14;2.90;99.90
25214;DHT22;13160;51.834;4.706;2023-03-02T09:18:46;3.00;99.90
25214;DHT22;13160;51.834;4.706;2023-03-02T09:21:14;3.10;99.90
25214;DHT22;13160;51.834;4.706;2023-03-02T09:23:47;3.10;99.90
25214;DHT22;13160;51.834;4.706;2023-03-02T09:26:19;3.20;99.90
25214;DHT22;13160;51.834;4.706;2023-03-02T09:28:47;3.30;99.90
25214;DHT22;13160;51.834;4.706;2023-03-02T09:31:16;3.40;99.90
25214;DHT22;13160;51.834;4.706;2023-03-02T09:33:44;3.40;99.90
25214;DHT22;13160;51.834;4.706;2023-03-02T09:36:22;3.50;99.90
25214;DHT22;13160;51.834;4.706;2023-03-02T09:38:52;3.60;99.90
25214;DHT22;13160;51.834;4.706;2023-03-02T09:47:49;3.90;99.90
25214;DHT22;13160;51.834;4.706;2023-03-02T09:50:29;4.00;99.90
25214;DHT22;13160;51.834;4.706;2023-03-02T09:53:20;4.10;99.90
25214;DHT22;13160;51.834;4.706;2023-03-02T09:55:56;4.10;99.90
25214;DHT22;13160;51.834;4.706;2023-03-02T09:58:29;4.20;99.90
25214;DHT22;13160;51.834;4.706;2023-03-02T10:01:08;4.30;99.90
25214;DHT22;13160;51.834;4.706;2023-03-02T10:03:47;4.40;99.90
25214;DHT22;13160;51.834;4.706;2023-03-02T10:06:19;4.40;99.90
25214;DHT22;13160;51.834;4.706;2023-03-02T10:08:49;4.50;99.90
25214;DHT22;13160;51.834;4.706;2023-03-02T10:11:24;4.60;99.90
25214;DHT22;13160;51.834;4.706;2023-03-02T10:14:01;4.70;99.90
25214;DHT22;13160;51.834;4.706;2023-03-02T10:16:36;4.80;99.90
25214;DHT22;13160;51.834;4.706;2023-03-02T10:19:11;4.90;99.90
25214;DHT22;13160;51.834;4.706;2023-03-02T10:21:45;5.00;99.90
25214;DHT22;13160;51.834;4.706;2023-03-02T10:24:25;5.10;99.90
25214;DHT22;13160;51.834;4.706;2023-03-02T10:27:00;5.20;99.90
25214;DHT22;13160;51.834;4.706;2023-03-02T10:29:44;5.20;99.90
25214;DHT22;13160;51.834;4.706;2023-03-02T10:32:19;5.30;99.90
25214;DHT22;13160;51.834;4.706;2023-03-02T10:34:49;5.40;99.90
25214;DHT22;13160;51.834;4.706;2023-03-02T10:37:21;5.40;99.90
25214;DHT22;13160;51.834;4.706;2023-03-02T10:39:52;5.50;99.90
25214;DHT22;13160;51.834;4.706;2023-03-02T10:42:24;5.50;99.90
25214;DHT22;13160;51.834;4.706;2023-03-02T10:45:01;5.60;99.90
25214;DHT22;13160;51.834;4.706;2023-03-02T10:47:34;5.70;99.90
25214;DHT22;13160;51.834;4.706;2023-03-02T10:50:02;5.80;99.90
25214;DHT22;13160;51.834;4.706;2023-03-02T10:52:31;5.80;99.90
25214;DHT22;13160;51.834;4.706;2023-03-02T10:55:04;5.90;99.90
25214;DHT22;13160;51.834;4.706;2023-03-02T10:57:35;6.00;99.90
25214;DHT22;13160;51.834;4.706;2023-03-02T11:00:15;6.10;99.90
25214;DHT22;13160;51.834;4.706;2023-03-02T11:02:49;6.10;99.90
25214;DHT22;13160;51.834;4.706;2023-03-02T11:05:21;6.10;99.90
25214;DHT22;13160;51.834;4.706;2023-03-02T11:07:55;6.20;99.90
25214;DHT22;13160;51.834;4.706;2023-03-02T11:10:28;6.30;99.90
25214;DHT22;13160;51.834;4.706;2023-03-02T11:12:59;6.40;99.90
25214;DHT22;13160;51.834;4.706;2023-03-02T11:15:35;6.40;99.90
25214;DHT22;13160;51.834;4.706;2023-03-02T11:18:10;6.60;99.90
25214;DHT22;13160;51.834;4.706;2023-03-02T11:20:51;6.70;99.90
25214;DHT22;13160;51.834;4.706;2023-03-02T11:23:25;6.70;99.90
25214;DHT22;13160;51.834;4.706;2023-03-02T11:26:09;6.80;99.90
25214;DHT22;13160;51.834;4.706;2023-03-02T11:28:47;6.90;99.90
25214;DHT22;13160;51.834;4.706;2023-03-02T11:31:23;7.00;99.90
25214;DHT22;13160;51.834;4.706;2023-03-02T11:34:06;7.00;99.90
25214;DHT22;13160;51.834;4.706;2023-03-02T11:36:49;7.10;99.90
25214;DHT22;13160;51.834;4.706;2023-03-02T11:39:30;7.10;99.90
25214;DHT22;13160;51.834;4.706;2023-03-02T11:42:22;7.20;99.90
25214;DHT22;13160;51.834;4.706;2023-03-02T11:44:52;7.30;99.90
25214;DHT22;13160;51.834;4.706;2023-03-02T11:47:21;7.30;99.90
25214;DHT22;13160;51.834;4.706;2023-03-02T11:49:54;7.40;99.90
25214;DHT22;13160;51.834;4.706;2023-03-02T11:52:25;7.40;99.90
25214;DHT22;13160;51.834;4.706;2023-03-02T11:54:56;7.50;99.90
25214;DHT22;13160;51.834;4.706;2023-03-02T11:57:31;7.50;99.90
25214;DHT22;13160;51.834;4.706;2023-03-02T12:00:13;7.60;99.90
25214;DHT22;13160;51.834;4.706;2023-03-02T12:02:45;7.60;99.90
25214;DHT22;13160;51.834;4.706;2023-03-02T12:05:26;7.70;99.90
25214;DHT22;13160;51.834;4.706;2023-03-02T12:07:57;7.70;99.90
25214;DHT22;13160;51.834;4.706;2023-03-02T12:10:32;7.80;99.90
25214;DHT22;13160;51.834;4.706;2023-03-02T12:13:13;7.90;99.90
25214;DHT22;13160;51.834;4.706;2023-03-02T12:15:45;7.90;99.90
25214;DHT22;13160;51.834;4.706;2023-03-02T12:18:24;8.00;99.90
25214;DHT22;13160;51.834;4.706;2023-03-02T12:21:03;8.00;99.90
25214;DHT22;13160;51.834;4.706;2023-03-02T12:23:34;8.10;99.90
25214;DHT22;13160;51.834;4.706;2023-03-02T12:26:07;8.20;99.90
25214;DHT22;13160;51.834;4.706;2023-03-02T12:28:58;8.30;99.10
25214;DHT22;13160;51.834;4.706;2023-03-02T12:31:42;8.30;97.60
25214;DHT22;13160;51.834;4.706;2023-03-02T12:34:29;8.40;96.70
25214;DHT22;13160;51.834;4.706;2023-03-02T12:37:05;8.40;96.50
25214;DHT22;13160;51.834;4.706;2023-03-02T12:40:00;8.50;96.40
25214;DHT22;13160;51.834;4.706;2023-03-02T12:42:48;8.50;95.30
25214;DHT22;13160;51.834;4.706;2023-03-02T12:45:29;8.60;95.80
25214;DHT22;13160;51.834;4.706;2023-03-02T12:48:19;8.60;95.20
25214;DHT22;13160;51.834;4.706;2023-03-02T12:50:53;8.60;93.70
25214;DHT22;13160;51.834;4.706;2023-03-02T12:53:22;8.70;93.70
25214;DHT22;13160;51.834;4.706;2023-03-02T12:55:51;8.80;93.60
25214;DHT22;13160;51.834;4.706;2023-03-02T12:58:21;8.80;93.10
25214;DHT22;13160;51.834;4.706;2023-03-02T13:00:53;8.90;92.80
25214;DHT22;13160;51.834;4.706;2023-03-02T13:03:23;9.00;92.80
25214;DHT22;13160;51.834;4.706;2023-03-02T13:05:59;9.00;92.90
25214;DHT22;13160;51.834;4.706;2023-03-02T13:08:31;9.10;94.60
25214;DHT22;13160;51.834;4.706;2023-03-02T13:11:01;9.10;95.60
25214;DHT22;13160;51.834;4.706;2023-03-02T13:13:35;9.20;96.50
25214;DHT22;13160;51.834;4.706;2023-03-02T13:16:16;9.30;97.30
25214;DHT22;13160;51.834;4.706;2023-03-02T13:18:47;9.30;98.00
25214;DHT22;13160;51.834;4.706;2023-03-02T13:21:20;9.30;98.30
25214;DHT22;13160;51.834;4.706;2023-03-02T13:23:51;9.30;98.90
25214;DHT22;13160;51.834;4.706;2023-03-02T13:26:25;9.40;99.30
25214;DHT22;13160;51.834;4.706;2023-03-02T13:29:03;9.40;99.40
25214;DHT22;13160;51.834;4.706;2023-03-02T13:31:34;9.40;99.60
25214;DHT22;13160;51.834;4.706;2023-03-02T13:34:02;9.40;99.60
25214;DHT22;13160;51.834;4.706;2023-03-02T13:36:34;9.40;99.70
25214;DHT22;13160;51.834;4.706;2023-03-02T13:39:06;9.40;99.60
25214;DHT22;13160;51.834;4.706;2023-03-02T13:41:52;9.40;99.50
25214;DHT22;13160;51.834;4.706;2023-03-02T13:44:26;9.40;99.20
25214;DHT22;13160;51.834;4.706;2023-03-02T13:46:57;9.40;98.70
25214;DHT22;13160;51.834;4.706;2023-03-02T13:49:29;9.40;98.70
25214;DHT22;13160;51.834;4.706;2023-03-02T13:52:01;9.50;98.80
25214;DHT22;13160;51.834;4.706;2023-03-02T13:54:35;9.50;99.00
25214;DHT22;13160;51.834;4.706;2023-03-02T13:57:04;9.50;98.80
25214;DHT22;13160;51.834;4.706;2023-03-02T13:59:33;9.50;99.60
25214;DHT22;13160;51.834;4.706;2023-03-02T14:02:13;9.60;99.60
25214;DHT22;13160;51.834;4.706;2023-03-02T14:04:47;9.60;99.70
25214;DHT22;13160;51.834;4.706;2023-03-02T14:07:16;9.50;99.80
25214;DHT22;13160;51.834;4.706;2023-03-02T14:09:45;9.60;99.80
25214;DHT22;13160;51.834;4.706;2023-03-02T14:12:24;9.50;99.90
25214;DHT22;13160;51.834;4.706;2023-03-02T14:14:56;9.60;99.90
25214;DHT22;13160;51.834;4.706;2023-03-02T14:17:27;9.60;99.90
25214;DHT22;13160;51.834;4.706;2023-03-02T14:19:55;9.60;99.90
25214;DHT22;13160;51.834;4.706;2023-03-02T14:22:25;9.60;99.90
25214;DHT22;13160;51.834;4.706;2023-03-02T14:25:00;9.60;99.90
25214;DHT22;13160;51.834;4.706;2023-03-02T14:27:32;9.60;99.90
25214;DHT22;13160;51.834;4.706;2023-03-02T14:30:00;9.50;99.90
25214;DHT22;13160;51.834;4.706;2023-03-02T14:32:32;9.50;99.90
25214;DHT22;13160;51.834;4.706;2023-03-02T14:35:00;9.50;99.90
25214;DHT22;13160;51.834;4.706;2023-03-02T14:37:31;9.50;99.90
25214;DHT22;13160;51.834;4.706;2023-03-02T14:39:59;9.50;99.90
25214;DHT22;13160;51.834;4.706;2023-03-02T14:42:27;9.50;99.90
25214;DHT22;13160;51.834;4.706;2023-03-02T14:44:56;9.50;99.90
25214;DHT22;13160;51.834;4.706;2023-03-02T14:47:25;9.50;99.90
25214;DHT22;13160;51.834;4.706;2023-03-02T14:49:55;9.50;99.90
25214;DHT22;13160;51.834;4.706;2023-03-02T14:52:28;9.50;99.90
25214;DHT22;13160;51.834;4.706;2023-03-02T14:55:01;9.50;99.90
25214;DHT22;13160;51.834;4.706;2023-03-02T14:57:35;9.50;99.90
25214;DHT22;13160;51.834;4.706;2023-03-02T15:00:06;9.50;99.90
25214;DHT22;13160;51.834;4.706;2023-03-02T15:02:35;9.40;99.90
25214;DHT22;13160;51.834;4.706;2023-03-02T15:05:06;9.40;99.90
25214;DHT22;13160;51.834;4.706;2023-03-02T15:07:35;9.30;99.90
25214;DHT22;13160;51.834;4.706;2023-03-02T15:10:06;9.30;99.90
25214;DHT22;13160;51.834;4.706;2023-03-02T15:12:35;9.20;99.90
25214;DHT22;13160;51.834;4.706;2023-03-02T15:15:04;9.10;99.90
25214;DHT22;13160;51.834;4.706;2023-03-02T15:17:33;9.00;99.90
25214;DHT22;13160;51.834;4.706;2023-03-02T15:20:02;9.00;99.90
25214;DHT22;13160;51.834;4.706;2023-03-02T15:22:33;9.00;99.90
25214;DHT22;13160;51.834;4.706;2023-03-02T15:25:01;8.90;99.90
25214;DHT22;13160;51.834;4.706;2023-03-02T15:27:31;8.90;99.90
25214;DHT22;13160;51.834;4.706;2023-03-02T15:29:59;8.80;99.90
25214;DHT22;13160;51.834;4.706;2023-03-02T15:32:27;8.70;99.90
25214;DHT22;13160;51.834;4.706;2023-03-02T15:34:56;8.70;99.90
25214;DHT22;13160;51.834;4.706;2023-03-02T15:37:24;8.70;99.90
25214;DHT22;13160;51.834;4.706;2023-03-02T15:39:54;8.60;99.90
25214;DHT22;13160;51.834;4.706;2023-03-02T15:42:23;8.60;99.90
25214;DHT22;13160;51.834;4.706;2023-03-02T15:44:51;8.50;99.90
25214;DHT22;13160;51.834;4.706;2023-03-02T15:47:20;8.50;99.90
25214;DHT22;13160;51.834;4.706;2023-03-02T15:49:48;8.50;99.90
25214;DHT22;13160;51.834;4.706;2023-03-02T15:52:17;8.50;99.90
25214;DHT22;13160;51.834;4.706;2023-03-02T15:54:46;8.40;99.90
25214;DHT22;13160;51.834;4.706;2023-03-02T15:57:16;8.40;99.90
25214;DHT22;13160;51.834;4.706;2023-03-02T15:59:44;8.30;99.90
25214;DHT22;13160;51.834;4.706;2023-03-02T16:02:13;8.30;99.90
25214;DHT22;13160;51.834;4.706;2023-03-02T16:04:45;8.30;99.90
25214;DHT22;13160;51.834;4.706;2023-03-02T16:07:14;8.20;99.90
25214;DHT22;13160;51.834;4.706;2023-03-02T16:09:43;8.20;99.90
25214;DHT22;13160;51.834;4.706;2023-03-02T16:12:12;8.20;99.90
25214;DHT22;13160;51.834;4.706;2023-03-02T16:14:44;8.20;99.90
25214;DHT22;13160;51.834;4.706;2023-03-02T16:17:12;8.20;99.90
25214;DHT22;13160;51.834;4.706;2023-03-02T16:19:43;8.10;99.90